• Join FlightAware (Why Join?)
  • Login
  • US Flag 
01:16PM EST


 

Airport Tracker/Info


-or-


 

Live Flight TrackerFlight Track Log ✈ SWA1182 ✈ 05-Sep-2013 ✈ KPDX - KDEN

Flight Track Log - Related Links

Times and Time Zones

All times are in EDT time to prevent confusion due to time zone crossing. See the SWA1182 flight status page for this flight to view local times or setup timezone preferences in your user account.

Time Position Orientation Groundspeed Altitude Reporting Facility
EDT Latitude Longitude Course Direction KTS MPH feet Rate Location/Type
09:15AM 45.5958 -122.6281 302° West 167 192 700  Level Seattle Center
09:16AM 45.6397 -122.7275 302° West 243 280 3,100 2,100 Climbing Seattle Center
09:17AM 45.6661 -122.8278 291° West 286 329 5,800 2,760 Climbing Seattle Center
09:18AM 45.5944 -122.8264 179° South 281 323 9,600 2,220 Climbing Seattle Center
09:19AM 45.5531 -122.7242 120° Southeast 299 344 11,000 1,860 Climbing Seattle Center
09:20AM 45.5072 -122.6050 119° Southeast 333 383 13,400 2,460 Climbing Seattle Center
09:21AM 45.4589 -122.4836 120° Southeast 348 400 16,000 2,100 Climbing Seattle Center
09:22AM 45.4097 -122.3611 120° Southeast 354 407 17,700 1,800 Climbing Seattle Center
09:23AM 45.3586 -122.2325 119° Southeast 369 425 19,700 1,920 Climbing Seattle Center
09:24AM 45.3053 -122.1031 120° Southeast 376 433 21,600 1,740 Climbing Seattle Center
09:25AM 45.2522 -121.9700 119° Southeast 383 441 23,300 1,560 Climbing Seattle Center
09:26AM 45.2131 -121.8136 110° East 398 458 24,800 1,500 Climbing Seattle Center
09:27AM 45.1742 -121.6631 110° East 407 468 26,400 1,740 Climbing Seattle Center
09:28AM 45.1358 -121.5150 110° East 404 465 28,400 1,980 Climbing Seattle Center
09:29AM 45.0994 -121.3742 110° East 388 447 30,500 1,680 Climbing Seattle Center
09:30AM 45.0639 -121.2406 111° Southeast 368 423 31,800 1,140 Climbing Seattle Center
09:31AM 45.0278 -121.1036 110° East 372 428 32,800 1,260 Climbing Seattle Center
09:32AM 44.9847 -120.9419 111° Southeast 369 425 34,400 1,080 Climbing Seattle Center
09:33AM 44.9500 -120.8117 111° Southeast 359 413 35,000 240 Climbing Seattle Center
09:34AM 44.9144 -120.6808 111° Southeast 359 413 35,000  Level Seattle Center
09:35AM 44.8794 -120.5500 111° Southeast 359 413 35,000  Level Seattle Center
09:36AM 44.8439 -120.4200 111° Southeast 359 413 35,000  Level Seattle Center
09:37AM 44.8083 -120.2889 111° Southeast 361 415 35,000  Level Seattle Center
09:38AM 44.7728 -120.1578 111° Southeast 364 419 35,000  Level Seattle Center
09:39AM 44.7353 -120.0267 112° Southeast 366 421 35,000  Level Seattle Center
09:40AM 44.6989 -119.8914 111° Southeast 373 429 35,000  Level Seattle Center
09:41AM 44.6611 -119.7567 111° Southeast 375 432 35,000  Level Seattle Center
09:42AM 44.6225 -119.6200 112° Southeast 377 434 35,000  Level Seattle Center
09:43AM 44.5828 -119.4853 112° Southeast 378 435 35,000  Level Seattle Center
09:45AM 44.5419 -119.3472 112° Southeast 383 441 35,000  Level Seattle Center
09:46AM 44.4936 -119.1808 112° Southeast 385 443 35,000  Level Seattle Center
09:47AM 44.4517 -119.0431 113° Southeast 386 444 35,000  Level Seattle Center
09:48AM 44.4092 -118.9033 113° Southeast 390 449 35,000  Level Seattle Center
09:49AM 44.3678 -118.7650 113° Southeast 388 447 35,000  Level Seattle Center
09:50AM 44.3256 -118.6272 113° Southeast 388 447 35,000  Level Seattle Center
09:51AM 44.2842 -118.4861 112° Southeast 392 451 35,000  Level Seattle Center
09:52AM 44.2414 -118.3481 113° Southeast 391 450 35,000  Level Seattle Center
09:53AM 44.1983 -118.2050 113° Southeast 397 457 35,000  Level Seattle Center
09:54AM 44.1525 -118.0614 114° Southeast 397 457 35,000  Level Seattle Center
09:55AM 44.1150 -117.9172 110° East 399 459 35,000  Level Seattle Center
09:56AM 44.0817 -117.7678 107° East 404 465 35,000  Level Seattle Center
09:57AM 44.0464 -117.6175 108° East 409 471 35,000  Level Seattle Center
09:58AM 44.0114 -117.4664 108° East 411 473 35,000  Level Seattle Center
09:59AM 43.9581 -117.2536 109° East 416 479 35,000  Level Salt Lake Center
10:00AM 43.9222 -117.1019 108° East 416 479 35,000  Level Salt Lake Center
10:01AM 43.8861 -116.9511 108° East 415 478 35,000  Level Salt Lake Center
10:02AM 43.8494 -116.7986 108° East 418 481 35,000  Level Salt Lake Center
10:03AM 43.8125 -116.6489 109° East 415 478 35,000  Level Salt Lake Center
10:04AM 43.7758 -116.4986 109° East 416 479 35,000  Level Salt Lake Center
10:05AM 43.7386 -116.3489 109° East 416 479 35,000  Level Salt Lake Center
10:06AM 43.6931 -116.1664 109° East 423 487 35,000  Level Salt Lake Center
10:07AM 43.6561 -116.0150 109° East 420 483 35,000  Level Salt Lake Center
10:08AM 43.6178 -115.8633 109° East 421 484 35,000  Level Salt Lake Center
10:09AM 43.5786 -115.7114 110° East 423 487 35,000  Level Salt Lake Center
10:10AM 43.5408 -115.5600 109° East 420 483 35,000  Level Salt Lake Center
10:11AM 43.5017 -115.4108 110° East 419 482 35,000  Level Salt Lake Center
10:12AM 43.4550 -115.2300 110° East 420 483 35,000  Level Salt Lake Center
10:13AM 43.4158 -115.0800 110° East 418 481 35,000  Level Salt Lake Center
10:14AM 43.3764 -114.9292 110° East 421 484 35,000  Level Salt Lake Center
10:15AM 43.3367 -114.7794 110° East 420 483 35,000  Level Salt Lake Center
10:16AM 43.2961 -114.6286 110° East 422 486 35,000  Level Salt Lake Center
10:17AM 43.2569 -114.4783 110° East 420 483 35,000  Level Salt Lake Center
10:18AM 43.2164 -114.3278 110° East 423 487 35,000  Level Salt Lake Center
10:19AM 43.1667 -114.1508 111° Southeast 421 484 35,000  Level Salt Lake Center
10:20AM 43.1250 -114.0011 111° Southeast 421 484 35,000  Level Salt Lake Center
10:21AM 43.0869 -113.8583 110° East 421 484 35,000  Level Salt Lake Center
10:23AM 43.0397 -113.6919 111° Southeast 421 484 35,000  Level Salt Lake Center
10:24AM 43.0000 -113.5475 111° Southeast 425 489 35,000  Level Salt Lake Center
10:25AM 42.9522 -113.3786 111° Southeast 428 493 35,000  Level Salt Lake Center
10:26AM 42.9125 -113.2361 111° Southeast 425 489 35,000  Level Salt Lake Center
10:27AM 42.8719 -113.0936 111° Southeast 423 487 35,000  Level Salt Lake Center
10:28AM 42.8239 -112.9250 111° Southeast 430 495 35,000  Level Salt Lake Center
10:29AM 42.7822 -112.7794 111° Southeast 433 498 35,000  Level Salt Lake Center
10:30AM 42.7317 -112.6086 112° Southeast 436 502 35,000  Level Salt Lake Center
10:31AM 42.6908 -112.4628 111° Southeast 434 499 35,000  Level Salt Lake Center
10:32AM 42.6442 -112.3092 112° Southeast 438 504 35,000  Level Salt Lake Center
10:33AM 42.5986 -112.1575 112° Southeast 436 502 35,000  Level Salt Lake Center
10:34AM 42.5536 -112.0042 112° Southeast 437 503 35,000  Level Salt Lake Center
10:35AM 42.4997 -111.8211 112° Southeast 436 502 35,000  Level Salt Lake Center
10:36AM 42.4533 -111.6694 112° Southeast 437 503 35,000  Level Salt Lake Center
10:37AM 42.4078 -111.5172 112° Southeast 437 503 35,000  Level Salt Lake Center
10:38AM 42.3617 -111.3658 112° Southeast 436 502 35,000  Level Salt Lake Center
10:39AM 42.3150 -111.2136 112° Southeast 438 504 35,000  Level Salt Lake Center
10:40AM 42.2692 -111.0619 112° Southeast 435 501 35,000  Level Salt Lake Center
10:41AM 42.2206 -110.9031 112° Southeast 437 503 35,000  Level Salt Lake Center
10:42AM 42.1683 -110.7333 112° Southeast 439 505 35,000 -60 Level Salt Lake Center
10:43AM 42.1217 -110.5889 113° Southeast 441 507 34,900 -600 Descending Salt Lake Center
10:44AM 42.0678 -110.4203 113° Southeast 439 505 33,800 -960 Descending Salt Lake Center
10:45AM 42.0219 -110.2767 113° Southeast 438 504 33,000 -420 Descending Salt Lake Center
10:46AM 41.9694 -110.1069 113° Southeast 441 507 33,000  Level Salt Lake Center
10:47AM 41.9233 -109.9639 113° Southeast 437 503 33,000  Level Salt Lake Center
10:48AM 41.8697 -109.7975 113° Southeast 436 502 33,000  Level Salt Lake Center
10:49AM 41.8228 -109.6550 114° Southeast 437 503 33,000  Level Salt Lake Center
10:50AM 41.7769 -109.5117 113° Southeast 437 503 33,000  Level Salt Lake Center
10:51AM 41.7231 -109.3453 113° Southeast 435 501 33,000  Level Salt Lake Center
10:52AM 41.6764 -109.2017 113° Southeast 436 502 33,000  Level Salt Lake Center
10:53AM 41.6200 -109.0322 114° Southeast 440 506 33,000  Level Salt Lake Center
10:54AM 41.5719 -108.8878 114° Southeast 439 505 33,000  Level Salt Lake Center
10:55AM 41.5242 -108.7439 114° Southeast 439 505 33,000  Level Salt Lake Center
10:57AM 41.4672 -108.5764 114° Southeast 442 509 33,000  Level Salt Lake Center
10:58AM 41.4183 -108.4339 115° Southeast 442 509 33,000  Level Salt Lake Center
10:58AM 41.3939 -108.3597 114° Southeast 444 511 33,000  Level Denver Center
10:59AM 41.3272 -108.1700 115° Southeast 444 511 33,000  Level Denver Center
11:00AM 41.2719 -108.0319 118° Southeast 442 509 33,000  Level Denver Center
11:01AM 41.2083 -107.8708 118° Southeast 442 509 33,000  Level Denver Center
11:02AM 41.1158 -107.7803 144° Southeast 429 494 33,000  Level Denver Center
11:03AM 41.0025 -107.6831 147° Southeast 432 497 33,000  Level Denver Center
11:04AM 40.9372 -107.5575 125° Southeast 440 506 33,000  Level Denver Center
11:05AM 40.9117 -107.3717 100° East 458 527 33,000  Level Denver Center
11:06AM 40.8881 -107.2150 101° East 456 525 33,000  Level Denver Center
11:08AM 40.8603 -107.0319 101° East 456 525 33,000  Level Denver Center
11:09AM 40.8361 -106.8742 101° East 458 527 33,000  Level Denver Center
11:10AM 40.8075 -106.6908 102° East 457 526 33,000  Level Denver Center
11:11AM 40.7831 -106.5333 102° East 459 528 33,000  Level Denver Center
11:12AM 40.7519 -106.3492 103° East 461 531 33,000 -180 Level Denver Center
11:13AM 40.7314 -106.2031 100° East 461 531 32,700 -1,500 Descending Denver Center
11:14AM 40.7025 -106.0269 102° East 459 528 30,000 -2,460 Descending Denver Center
11:15AM 40.6761 -105.8694 102° East 445 512 27,700 -2,160 Descending Denver Center
11:16AM 40.6508 -105.7175 102° East 432 497 25,600 -2,280 Descending Denver Center
11:17AM 40.6222 -105.5433 102° East 409 471 23,100 -2,220 Descending Denver Center
11:18AM 40.5900 -105.4119 108° East 383 441 21,100 -1,920 Descending Denver Center
11:19AM 40.5289 -105.3022 126° Southeast 369 425 19,200 -1,560 Descending Denver Center
11:20AM 40.4778 -105.1836 120° Southeast 374 430 17,900 -1,500 Descending Denver Center
11:21AM 40.4378 -105.0428 110° East 379 436 16,100 -1,380 Descending Denver Center
11:22AM 40.4042 -104.9297 111° Southeast 343 395 15,100 -1,320 Descending Denver Center
11:23AM 40.3692 -104.8217 113° Southeast 306 352 13,400 -1,500 Descending Denver Center
11:24AM 40.3350 -104.7200 114° Southeast 305 351 12,000 -1,440 Descending Denver Center
11:25AM 40.2572 -104.6836 160° South 283 326 10,500 -1,020 Descending Denver Center
11:26AM 40.1847 -104.6839 180° South 259 298 10,000 -540 Descending Denver Center
11:27AM 40.1175 -104.6844 180° South 244 281 9,400 -960 Descending Denver Center
11:28AM 40.0369 -104.6853 180° South 206 237 7,900 -1,200 Descending Denver Center
11:29AM 39.9856 -104.6861 181° South 188 216 7,000 -840 Descending Denver Center
11:30AM 39.9403 -104.6864 180° South 167 192 6,200 -840 Descending Denver Center
11:32AM 39.8914 -104.6867 180° South 164 189 5,300 -900 Descending Denver Center
11:34AM 39.8617 -104.6732 180° South  Level Estimated
11:41AM 39.8617 -104.6732 180° South  Level Estimated
11:42AM 39.8617 -104.6732 180° South  Level Estimated